createdAt,value
2018-03-27T00:00:32.655Z,12.80
2018-03-27T00:03:00.903Z,10.17
2018-03-27T00:05:28.403Z,10.40
2018-03-27T00:07:55.883Z,10.80
2018-03-27T00:10:24.162Z,14.07
2018-03-27T00:12:51.638Z,13.27
2018-03-27T00:15:21.844Z,13.43
2018-03-27T00:17:49.325Z,12.57
2018-03-27T00:20:16.819Z,13.40
2018-03-27T00:22:45.068Z,14.87
2018-03-27T00:25:12.572Z,16.20
2018-03-27T00:27:52.603Z,14.23
2018-03-27T00:30:31.951Z,14.47
2018-03-27T00:33:11.490Z,12.40
2018-03-27T00:35:50.829Z,14.50
2018-03-27T00:38:30.239Z,11.53
2018-03-27T00:40:57.243Z,11.80
2018-03-27T00:43:24.728Z,9.03
2018-03-27T00:45:52.231Z,11.80
2018-03-27T00:48:19.717Z,9.70
2018-03-27T00:50:47.988Z,11.00
2018-03-27T00:53:15.467Z,8.80
2018-03-27T00:55:43.740Z,12.87
2018-03-27T00:58:11.224Z,8.83
2018-03-27T01:00:39.498Z,12.03
2018-03-27T01:03:06.979Z,13.87
2018-03-27T01:05:35.232Z,11.73
2018-03-27T01:08:02.740Z,12.23
2018-03-27T01:10:30.218Z,12.33
2018-03-27T01:12:58.475Z,12.43
2018-03-27T01:15:25.964Z,15.50
2018-03-27T01:17:53.461Z,11.83
2018-03-27T01:20:20.942Z,11.60
2018-03-27T01:22:48.448Z,12.60
2018-03-27T01:25:15.932Z,10.37
2018-03-27T01:27:43.428Z,15.50
2018-03-27T01:30:11.680Z,9.53
2018-03-27T01:32:39.183Z,13.13
2018-03-27T01:35:07.427Z,11.10
2018-03-27T01:37:34.923Z,12.33
2018-03-27T01:40:02.411Z,12.00
2018-03-27T01:42:30.685Z,13.20
2018-03-27T01:44:58.171Z,16.27
2018-03-27T01:47:26.442Z,11.17
2018-03-27T01:49:53.924Z,11.03
2018-03-27T01:52:22.201Z,11.80
2018-03-27T01:54:49.683Z,11.17
2018-03-27T01:57:17.982Z,10.20
2018-03-27T01:59:45.490Z,12.03
2018-03-27T02:02:12.976Z,10.67
2018-03-27T02:04:40.476Z,11.37
2018-03-27T02:07:07.959Z,10.90
2018-03-27T02:09:36.237Z,11.20
2018-03-27T02:12:09.271Z,14.00
2018-03-27T02:14:42.533Z,10.23
2018-03-27T02:17:15.638Z,12.63
2018-03-27T02:19:48.955Z,13.47
2018-03-27T02:22:17.206Z,13.30
2018-03-27T02:24:44.749Z,16.30
2018-03-27T02:27:12.220Z,11.70
2018-03-27T02:29:39.733Z,10.03
2018-03-27T02:32:07.223Z,13.57
2018-03-27T02:34:34.733Z,13.70
2018-03-27T02:39:55.025Z,11.10
2018-03-27T02:42:22.512Z,12.70
2018-03-27T02:44:50.030Z,10.40
2018-03-27T02:47:17.518Z,12.50
2018-03-27T02:49:45.019Z,12.20
2018-03-27T02:52:13.264Z,9.80
2018-03-27T02:54:40.839Z,12.63
2018-03-27T02:57:09.019Z,12.77
2018-03-27T02:59:36.548Z,14.20
2018-03-27T03:02:04.038Z,12.20
2018-03-27T03:04:31.523Z,13.93
2018-03-27T03:06:59.039Z,12.30
2018-03-27T03:09:27.305Z,12.93
2018-03-27T03:11:54.810Z,13.73
2018-03-27T03:14:23.067Z,16.13
2018-03-27T03:16:50.588Z,14.93
2018-03-27T03:19:18.076Z,17.43
2018-03-27T03:21:45.589Z,13.10
2018-03-27T03:24:13.075Z,19.00
2018-03-27T03:26:41.359Z,15.37
2018-03-27T03:29:09.616Z,14.87
2018-03-27T03:31:37.131Z,20.33
2018-03-27T03:34:05.386Z,15.47
2018-03-27T03:36:32.896Z,15.70
2018-03-27T03:39:00.383Z,18.60
2018-03-27T03:41:27.892Z,17.37
2018-03-27T03:43:55.379Z,19.43
2018-03-27T03:46:22.896Z,18.40
2018-03-27T03:48:50.397Z,17.13
2018-03-27T03:51:17.891Z,20.63
2018-03-27T03:53:46.179Z,29.53
2018-03-27T03:56:13.673Z,28.47
2018-03-27T03:59:00.494Z,22.43
2018-03-27T04:01:28.750Z,21.87
2018-03-27T04:03:56.261Z,21.63
2018-03-27T04:06:23.756Z,22.97
2018-03-27T04:08:51.278Z,20.47
2018-03-27T04:11:19.571Z,23.13
2018-03-27T04:13:47.064Z,23.53
2018-03-27T04:16:14.545Z,26.33
2018-03-27T04:18:42.061Z,29.40
2018-03-27T04:21:09.552Z,26.27
2018-03-27T04:23:37.830Z,31.67
2018-03-27T04:26:05.333Z,28.23
2018-03-27T04:28:32.842Z,28.47
2018-03-27T04:31:00.325Z,30.50
2018-03-27T04:33:27.826Z,29.23
2018-03-27T04:35:55.329Z,31.13
2018-03-27T04:38:22.844Z,34.50
2018-03-27T04:40:50.336Z,29.73
2018-03-27T04:43:18.591Z,36.37
2018-03-27T04:45:46.101Z,36.60
2018-03-27T04:48:14.357Z,41.13
2018-03-27T04:50:41.863Z,37.13
2018-03-27T04:53:09.342Z,38.90
2018-03-27T04:55:36.861Z,43.80
2018-03-27T04:58:04.356Z,39.87
2018-03-27T05:00:32.641Z,44.47
2018-03-27T05:03:20.272Z,48.37
2018-03-27T05:05:47.793Z,48.60
2018-03-27T05:08:15.284Z,45.20
2018-03-27T05:10:42.789Z,44.07
2018-03-27T05:13:10.278Z,47.10
2018-03-27T05:15:38.556Z,51.37
2018-03-27T05:18:06.812Z,49.73
2018-03-27T05:20:34.318Z,49.23
2018-03-27T05:23:02.580Z,50.50
2018-03-27T05:25:30.080Z,52.30
2018-03-27T05:27:58.342Z,56.70
2018-03-27T05:30:25.864Z,56.20
2018-03-27T05:32:53.407Z,62.00
2018-03-27T05:35:20.876Z,53.37
2018-03-27T05:37:49.128Z,54.60
2018-03-27T05:40:18.554Z,58.27
2018-03-27T05:42:46.038Z,60.80
2018-03-27T05:45:13.514Z,56.40
2018-03-27T05:47:41.821Z,60.03
2018-03-27T05:50:10.070Z,57.70
2018-03-27T05:52:37.574Z,55.43
2018-03-27T05:55:05.819Z,56.40
2018-03-27T05:57:33.328Z,58.20
2018-03-27T06:00:01.589Z,53.33
2018-03-27T06:02:29.100Z,63.00
2018-03-27T06:04:56.592Z,65.23
2018-03-27T06:07:24.096Z,52.90
2018-03-27T06:09:51.594Z,58.77
2018-03-27T06:12:19.865Z,51.87
2018-03-27T06:14:47.359Z,60.93
2018-03-27T06:17:15.652Z,73.20
2018-03-27T06:19:43.895Z,69.93
2018-03-27T06:22:12.782Z,82.83
2018-03-27T06:24:41.293Z,65.33
2018-03-27T06:27:08.788Z,61.80
2018-03-27T06:29:36.298Z,70.77
2018-03-27T06:32:03.789Z,69.43
2018-03-27T06:34:31.297Z,68.93
2018-03-27T06:36:58.784Z,71.10
2018-03-27T06:39:26.292Z,59.53
2018-03-27T06:41:54.634Z,60.80
2018-03-27T06:44:22.914Z,56.13
2018-03-27T06:46:50.399Z,59.83
2018-03-27T06:49:18.676Z,58.80
2018-03-27T06:51:46.169Z,55.83
2018-03-27T06:54:13.692Z,62.43
2018-03-27T06:56:41.179Z,62.47
2018-03-27T06:59:08.703Z,57.77
2018-03-27T07:01:36.206Z,62.07
2018-03-27T07:04:03.707Z,57.17
2018-03-27T07:06:32.018Z,71.37
2018-03-27T07:09:00.274Z,63.90
2018-03-27T07:11:27.811Z,51.77
2018-03-27T07:13:55.339Z,55.83
2018-03-27T07:16:22.841Z,56.37
2018-03-27T07:18:50.305Z,52.00
2018-03-27T07:21:17.833Z,56.10
2018-03-27T07:23:45.296Z,52.03
2018-03-27T07:26:12.827Z,54.03
2018-03-27T07:28:40.320Z,49.37
2018-03-27T07:31:07.823Z,49.60
2018-03-27T07:33:36.074Z,48.50
2018-03-27T07:36:03.599Z,49.50
2018-03-27T07:38:31.107Z,49.33
2018-03-27T07:40:58.620Z,49.53
2018-03-27T07:43:26.134Z,50.00
2018-03-27T07:45:53.649Z,56.33
2018-03-27T07:48:21.912Z,50.50
2018-03-27T07:50:49.404Z,42.80
2018-03-27T07:53:16.913Z,49.53
2018-03-27T07:55:44.408Z,52.83
2018-03-27T07:58:11.935Z,47.90
2018-03-27T08:00:40.184Z,46.43
2018-03-27T08:03:07.683Z,47.27
2018-03-27T08:05:35.947Z,43.33
2018-03-27T08:08:03.451Z,45.40
2018-03-27T08:10:31.700Z,45.30
2018-03-27T08:12:59.203Z,42.50
2018-03-27T08:15:27.456Z,51.60
2018-03-27T08:17:54.960Z,43.43
2018-03-27T08:20:23.212Z,39.87
2018-03-27T08:22:50.733Z,42.80
2018-03-27T08:25:18.220Z,37.60
2018-03-27T08:27:45.704Z,37.60
2018-03-27T08:30:13.216Z,39.80
2018-03-27T08:32:40.712Z,35.73
2018-03-27T08:35:08.995Z,33.47
2018-03-27T08:37:37.260Z,33.20
2018-03-27T08:40:04.767Z,30.47
2018-03-27T08:42:32.251Z,35.13
2018-03-27T08:44:59.774Z,28.30
2018-03-27T08:47:27.265Z,28.10
2018-03-27T08:49:55.539Z,26.30
2018-03-27T08:52:23.035Z,24.43
2018-03-27T08:54:50.566Z,31.10
2018-03-27T08:57:18.060Z,34.33
2018-03-27T08:59:46.334Z,32.80
2018-03-27T09:02:14.601Z,32.20
2018-03-27T09:04:42.112Z,29.67
2018-03-27T09:07:10.362Z,23.20
2018-03-27T09:09:37.876Z,23.17
2018-03-27T09:12:05.365Z,21.77
2018-03-27T09:14:32.873Z,29.67
2018-03-27T09:17:00.359Z,35.17
2018-03-27T09:19:27.930Z,30.10
2018-03-27T09:21:55.484Z,27.60
2018-03-27T09:24:22.969Z,27.80
2018-03-27T09:26:50.486Z,33.90
2018-03-27T09:29:17.981Z,37.20
2018-03-27T09:31:45.491Z,35.60
2018-03-27T09:34:13.743Z,34.47
2018-03-27T09:36:41.256Z,33.93
2018-03-27T09:39:08.754Z,34.33
2018-03-27T09:41:36.273Z,32.63
2018-03-27T09:44:03.768Z,35.83
2018-03-27T09:46:32.053Z,35.43
2018-03-27T09:49:00.308Z,33.67
2018-03-27T09:51:27.815Z,33.00
2018-03-27T09:53:56.090Z,34.90
2018-03-27T09:56:23.598Z,32.57
2018-03-27T09:58:51.098Z,36.00
2018-03-27T10:01:24.220Z,29.77
2018-03-27T10:03:51.724Z,31.10
2018-03-27T10:06:19.252Z,28.67
2018-03-27T10:08:46.746Z,27.30
2018-03-27T10:11:14.285Z,34.47
2018-03-27T10:13:41.775Z,33.00
2018-03-27T10:16:09.274Z,28.97
2018-03-27T10:18:37.552Z,27.23
2018-03-27T10:21:05.813Z,25.23
2018-03-27T10:23:33.335Z,33.70
2018-03-27T10:26:00.829Z,30.70
2018-03-27T10:28:28.339Z,29.73
2018-03-27T10:30:55.827Z,29.17
2018-03-27T10:33:24.104Z,28.03
2018-03-27T10:35:51.596Z,28.70
2018-03-27T10:38:19.109Z,32.07
2018-03-27T10:40:46.599Z,30.47
2018-03-27T10:43:14.119Z,33.03
2018-03-27T10:45:41.611Z,32.23
2018-03-27T10:48:09.110Z,30.67
2018-03-27T10:50:36.607Z,31.97
2018-03-27T10:53:04.908Z,33.40
2018-03-27T10:55:32.413Z,36.00
2018-03-27T10:57:59.899Z,29.30
2018-03-27T11:00:27.425Z,37.07
2018-03-27T11:02:54.923Z,30.43
2018-03-27T11:05:22.445Z,33.50
2018-03-27T11:07:50.707Z,35.77
2018-03-27T11:10:18.220Z,42.40
2018-03-27T11:12:45.722Z,35.27
2018-03-27T11:15:13.243Z,37.03
2018-03-27T11:17:41.506Z,33.13
2018-03-27T11:20:09.024Z,32.37
2018-03-27T11:22:36.528Z,32.60
2018-03-27T11:25:04.048Z,36.43
2018-03-27T11:27:32.310Z,27.10
2018-03-27T11:29:59.825Z,26.50
2018-03-27T11:32:27.312Z,27.80
2018-03-27T11:34:54.820Z,29.47
2018-03-27T11:37:22.320Z,29.03
2018-03-27T11:39:50.600Z,27.40
2018-03-27T11:42:18.865Z,29.43
2018-03-27T11:44:46.365Z,26.77
2018-03-27T11:47:14.644Z,26.53
2018-03-27T11:49:42.906Z,28.50
2018-03-27T11:52:10.432Z,28.23
2018-03-27T11:54:37.979Z,28.70
2018-03-27T11:57:05.469Z,22.83
2018-03-27T11:59:32.970Z,22.20
2018-03-27T12:02:00.486Z,24.27
2018-03-27T12:04:28.740Z,27.60
2018-03-27T12:06:56.269Z,23.83
2018-03-27T12:09:23.758Z,24.37
2018-03-27T12:11:51.284Z,24.80
2018-03-27T12:14:19.552Z,26.43
2018-03-27T12:16:47.058Z,25.77
2018-03-27T12:19:15.311Z,25.90
2018-03-27T12:21:42.825Z,25.07
2018-03-27T12:24:10.320Z,26.57
2018-03-27T12:26:37.868Z,28.80
2018-03-27T12:29:05.355Z,23.10
2018-03-27T12:31:32.870Z,24.03
2018-03-27T12:34:00.393Z,24.53
2018-03-27T12:36:27.894Z,29.67
2018-03-27T12:38:55.408Z,28.53
2018-03-27T12:41:23.673Z,61.87
2018-03-27T12:43:51.188Z,28.13
2018-03-27T12:46:18.681Z,34.90
2018-03-27T12:48:46.190Z,26.70
2018-03-27T12:51:13.712Z,217.37
2018-03-27T12:53:41.210Z,25.30
2018-03-27T12:56:08.701Z,21.27
2018-03-27T12:58:36.218Z,47.60
2018-03-27T13:01:03.727Z,104.93
2018-03-27T13:03:31.249Z,28.63
2018-03-27T13:05:58.745Z,255.37
2018-03-27T13:08:26.268Z,27.80
2018-03-27T13:10:54.529Z,22.90
2018-03-27T13:13:22.045Z,26.50
2018-03-27T13:15:49.534Z,23.23
2018-03-27T13:18:17.082Z,24.90
2018-03-27T13:20:45.331Z,24.93
2018-03-27T13:23:12.812Z,25.00
2018-03-27T13:25:40.934Z,27.30
2018-03-27T13:28:08.430Z,25.10
2018-03-27T13:30:35.950Z,30.20
2018-03-27T13:33:04.206Z,24.33
2018-03-27T13:35:31.735Z,25.03
2018-03-27T13:37:59.228Z,25.67
2018-03-27T13:40:26.740Z,24.40
2018-03-27T13:42:55.001Z,30.03
2018-03-27T13:45:22.518Z,25.93
2018-03-27T13:47:50.008Z,28.47
2018-03-27T13:50:17.517Z,25.20
2018-03-27T13:52:45.004Z,27.43
2018-03-27T13:55:12.521Z,26.63
2018-03-27T13:57:40.013Z,27.27
2018-03-27T14:00:08.251Z,27.00
2018-03-27T14:02:36.518Z,28.30
2018-03-27T14:05:04.013Z,28.70
2018-03-27T14:07:32.292Z,27.33
2018-03-27T14:10:00.559Z,26.70
2018-03-27T14:12:28.063Z,31.63
2018-03-27T14:14:56.355Z,26.63
2018-03-27T14:17:23.842Z,25.37
2018-03-27T14:19:51.330Z,25.97
2018-03-27T14:22:18.843Z,29.10
2018-03-27T14:24:46.331Z,26.27
2018-03-27T14:27:14.613Z,29.07
2018-03-27T14:29:42.871Z,26.53
2018-03-27T14:32:10.383Z,28.47
2018-03-27T14:34:37.877Z,32.90
2018-03-27T14:37:05.389Z,27.00
2018-03-27T14:39:32.894Z,40.30
2018-03-27T14:42:00.379Z,26.73
2018-03-27T14:44:27.898Z,26.77
2018-03-27T14:46:55.396Z,30.87
2018-03-27T14:49:23.672Z,29.83
2018-03-27T14:51:51.937Z,30.47
2018-03-27T14:54:19.458Z,32.23
2018-03-27T14:56:46.949Z,30.30
2018-03-27T14:59:14.462Z,42.97
2018-03-27T15:01:41.948Z,40.40
2018-03-27T15:04:10.241Z,32.73
2018-03-27T15:06:38.503Z,35.23
2018-03-27T15:09:06.012Z,39.40
2018-03-27T15:11:33.526Z,34.53
2018-03-27T15:14:01.039Z,34.07
2018-03-27T15:16:29.314Z,35.87
2018-03-27T15:18:56.827Z,45.97
2018-03-27T15:21:24.316Z,37.70
2018-03-27T15:23:51.833Z,31.73
2018-03-27T15:26:20.096Z,68.70
2018-03-27T15:28:47.609Z,35.27
2018-03-27T15:31:15.099Z,32.43
2018-03-27T15:33:42.616Z,28.60
2018-03-27T15:36:10.121Z,28.37
2018-03-27T15:38:37.629Z,58.00
2018-03-27T15:41:05.153Z,37.70
2018-03-27T15:43:32.655Z,36.10
2018-03-27T15:46:00.171Z,29.43
2018-03-27T15:48:27.670Z,28.47
2018-03-27T15:50:55.188Z,28.07
2018-03-27T15:53:22.692Z,30.23
2018-03-27T15:55:50.971Z,29.90
2018-03-27T15:58:18.484Z,27.13
2018-03-27T16:00:45.998Z,28.43
2018-03-27T16:03:13.556Z,32.47
2018-03-27T16:05:41.084Z,37.23
2018-03-27T16:08:08.571Z,32.67
2018-03-27T16:10:36.144Z,37.93
2018-03-27T16:13:03.640Z,35.83
2018-03-27T16:15:31.138Z,32.13
2018-03-27T16:17:58.661Z,36.53
2018-03-27T16:20:26.155Z,40.03
2018-03-27T16:22:53.672Z,38.70
2018-03-27T16:25:21.171Z,33.37
2018-03-27T16:30:41.367Z,38.60
2018-03-27T16:33:09.649Z,41.40
2018-03-27T16:35:37.905Z,34.50
2018-03-27T16:38:05.421Z,37.90
2018-03-27T16:40:32.912Z,35.37
2018-03-27T16:43:00.422Z,34.80
2018-03-27T16:45:27.909Z,35.60
2018-03-27T16:47:55.424Z,32.70
2018-03-27T16:50:22.916Z,32.97
2018-03-27T16:52:50.427Z,33.20
2018-03-27T16:55:17.915Z,31.20
2018-03-27T16:57:46.197Z,32.17
2018-03-27T17:00:14.452Z,36.07
2018-03-27T17:02:41.961Z,34.20
2018-03-27T17:05:10.220Z,29.90
2018-03-27T17:07:37.741Z,29.80
2018-03-27T17:10:06.009Z,31.40
2018-03-27T17:12:33.502Z,30.53
2018-03-27T17:15:06.839Z,30.27
2018-03-27T17:17:34.330Z,33.00
2018-03-27T17:20:01.858Z,29.97
2018-03-27T17:25:23.051Z,32.10
2018-03-27T17:27:50.544Z,35.67
2018-03-27T17:30:18.820Z,33.60
2018-03-27T17:32:46.317Z,36.30
2018-03-27T17:35:13.829Z,37.80
2018-03-27T17:37:41.321Z,33.00
2018-03-27T17:40:08.836Z,34.23
2018-03-27T17:42:36.351Z,34.93
2018-03-27T17:45:03.860Z,36.90
2018-03-27T17:47:32.189Z,34.70
2018-03-27T17:50:00.414Z,36.23
2018-03-27T17:52:27.924Z,39.83
2018-03-27T17:54:55.446Z,37.20
2018-03-27T17:57:22.947Z,41.40
2018-03-27T17:59:51.228Z,42.80
2018-03-27T18:02:19.481Z,186.27
2018-03-27T18:04:47.168Z,39.90
2018-03-27T18:07:14.664Z,41.90
2018-03-27T18:09:42.949Z,35.30
2018-03-27T18:12:11.210Z,44.23
2018-03-27T18:14:38.721Z,40.10
2018-03-27T18:17:06.228Z,46.27
2018-03-27T18:19:33.733Z,40.67
2018-03-27T18:22:01.244Z,40.27
2018-03-27T18:24:28.736Z,32.63
2018-03-27T18:26:56.251Z,38.20
2018-03-27T18:29:23.762Z,31.83
2018-03-27T18:31:51.276Z,41.63
2018-03-27T18:34:18.767Z,43.03
2018-03-27T18:36:47.046Z,38.40
2018-03-27T18:39:14.536Z,40.87
2018-03-27T18:41:42.818Z,43.07
2018-03-27T18:44:11.072Z,52.17
2018-03-27T18:46:38.584Z,41.73
2018-03-27T18:49:18.056Z,45.30
2018-03-27T18:51:45.568Z,45.63
2018-03-27T18:54:15.075Z,53.33
2018-03-27T18:56:42.584Z,46.83
2018-03-27T18:59:10.063Z,39.87
2018-03-27T19:01:37.590Z,39.33
2018-03-27T19:04:05.085Z,43.70
2018-03-27T19:06:32.594Z,47.80
2018-03-27T19:09:00.076Z,39.97
2018-03-27T19:11:27.598Z,41.70
2018-03-27T19:13:55.868Z,39.63
2018-03-27T19:16:23.357Z,43.30
2018-03-27T19:18:51.641Z,39.10
2018-03-27T19:21:19.132Z,37.87
2018-03-27T19:23:47.408Z,37.57
2018-03-27T19:26:14.904Z,42.07
2018-03-27T19:28:42.428Z,38.10
2018-03-27T19:31:09.927Z,36.97
2018-03-27T19:33:38.200Z,40.70
2018-03-27T19:36:05.690Z,41.70
2018-03-27T19:38:33.960Z,42.50
2018-03-27T19:41:01.448Z,43.77
2018-03-27T19:43:29.725Z,41.87
2018-03-27T19:45:57.221Z,43.80
2018-03-27T19:48:24.740Z,40.97
2018-03-27T19:50:52.222Z,46.70
2018-03-27T19:53:19.749Z,44.07
2018-03-27T19:55:48.037Z,45.80
2018-03-27T19:58:15.528Z,55.30
2018-03-27T20:00:46.383Z,44.50
2018-03-27T20:03:13.872Z,50.97
2018-03-27T20:05:41.388Z,48.37
2018-03-27T20:08:08.877Z,51.40
2018-03-27T20:10:36.382Z,55.80
2018-03-27T20:13:03.880Z,53.37
2018-03-27T20:15:41.703Z,78.73
2018-03-27T20:18:00.421Z,59.50
2018-03-27T20:20:27.933Z,61.40
2018-03-27T20:22:56.196Z,56.80
2018-03-27T20:25:24.486Z,64.13
2018-03-27T20:27:51.987Z,59.20
2018-03-27T20:30:19.497Z,64.20
2018-03-27T20:32:46.992Z,70.73
2018-03-27T20:35:14.510Z,71.47
2018-03-27T20:37:41.999Z,61.80
2018-03-27T20:40:09.532Z,62.13
2018-03-27T20:42:37.809Z,49.60
2018-03-27T20:45:06.054Z,60.40
2018-03-27T20:47:33.563Z,59.50
2018-03-27T20:50:01.821Z,62.97
2018-03-27T20:52:29.330Z,61.20
2018-03-27T20:54:57.583Z,64.23
2018-03-27T20:57:25.090Z,73.37
2018-03-27T20:59:53.349Z,74.83
2018-03-27T21:02:20.857Z,83.30
2018-03-27T21:04:49.104Z,85.50
2018-03-27T21:07:16.610Z,76.03
2018-03-27T21:09:44.859Z,61.37
2018-03-27T21:12:12.364Z,75.27
2018-03-27T21:14:40.625Z,77.47
2018-03-27T21:17:08.138Z,80.77
2018-03-27T21:19:35.624Z,68.67
2018-03-27T21:22:03.135Z,84.43
2018-03-27T21:24:30.615Z,64.03
2018-03-27T21:26:58.871Z,80.10
2018-03-27T21:29:26.384Z,70.60
2018-03-27T21:31:54.685Z,75.67
2018-03-27T21:34:22.954Z,73.37
2018-03-27T21:36:50.444Z,82.60
2018-03-27T21:39:17.957Z,73.20
2018-03-27T21:41:45.449Z,65.03
2018-03-27T21:44:12.963Z,63.53
2018-03-27T21:46:40.453Z,72.60
2018-03-27T21:49:11.028Z,78.13
2018-03-27T21:51:38.520Z,66.20
2018-03-27T21:54:06.023Z,70.83
2018-03-27T21:56:33.515Z,75.77
2018-03-27T21:59:01.020Z,71.63
2018-03-27T22:01:28.500Z,71.03
2018-03-27T22:03:56.002Z,75.43
2018-03-27T22:06:25.290Z,69.93
2018-03-27T22:08:52.812Z,77.00
2018-03-27T22:11:20.300Z,75.77
2018-03-27T22:13:47.806Z,66.20
2018-03-27T22:16:16.048Z,69.43
2018-03-27T22:18:43.537Z,65.83
2018-03-27T22:21:11.056Z,70.93
2018-03-27T22:23:38.544Z,69.87
2018-03-27T22:26:16.456Z,77.13
2018-03-27T22:28:43.949Z,78.97
2018-03-27T22:31:11.455Z,69.07
2018-03-27T22:33:39.722Z,77.73
2018-03-27T22:36:07.228Z,85.03
2018-03-27T22:38:35.476Z,95.37
2018-03-27T22:41:02.994Z,98.83
2018-03-27T22:43:30.474Z,98.90
2018-03-27T22:45:57.977Z,89.97
2018-03-27T22:48:25.454Z,79.03
2018-03-27T22:50:52.955Z,81.70
2018-03-27T22:53:21.203Z,89.43
2018-03-27T22:55:48.709Z,94.57
2018-03-27T22:58:16.972Z,83.87
2018-03-27T23:00:44.480Z,93.63
2018-03-27T23:03:12.737Z,99.93
2018-03-27T23:22:47.626Z,88.10
2018-03-27T23:25:15.113Z,97.17
2018-03-27T23:27:42.617Z,89.17
2018-03-27T23:30:10.108Z,98.37
2018-03-27T23:32:38.380Z,93.70
2018-03-27T23:35:05.877Z,81.00
2018-03-27T23:37:33.401Z,84.07
2018-03-27T23:40:00.883Z,95.53
2018-03-27T23:42:28.400Z,76.50
2018-03-27T23:44:55.893Z,80.03
2018-03-27T23:47:23.388Z,74.57
2018-03-27T23:49:50.900Z,76.90
2018-03-27T23:52:19.160Z,85.33
2018-03-27T23:54:46.670Z,107.30
2018-03-27T23:57:14.156Z,96.10
2018-03-27T23:59:41.663Z,75.00
